Time;durP1;ratioP1;P1;durP2;ratioP2;P2;SDS_P1;SDS_P2;PMS_P1;PMS_P2;Temp;Humidity;BMP_temperature;BMP_pressure;BME280_temperature;BME280_humidity;BME280_pressure;Samples;Min_cycle;Max_cycle;Signal;HPM_P1;HPM_P2
2021/03/16 00:00:50;;;;;;;33.67;13.80;;;;;;;6.71;57.23;98746.50;10584638;28;20070;-53
2021/03/16 00:06:11;;;;;;;30.13;13.40;;;;;;;6.65;56.98;98739.19;10583196;28;20047;-53
2021/03/16 00:11:12;;;;;;;34.20;14.27;;;;;;;6.50;57.46;98743.94;10580745;28;20104;-56
2021/03/16 00:16:15;;;;;;;35.03;15.45;;;;;;;6.48;57.13;98732.78;10582654;28;20044;-52
2021/03/16 00:21:16;;;;;;;35.15;15.27;;;;;;;6.52;56.84;98735.97;10581847;28;20442;-52
2021/03/16 00:26:18;;;;;;;35.97;15.30;;;;;;;6.47;56.61;98740.75;10592035;28;20073;-56
2021/03/16 00:31:21;;;;;;;31.17;14.77;;;;;;;6.44;57.16;98736.63;10591762;28;20043;-53
2021/03/16 00:36:22;;;;;;;35.63;14.65;;;;;;;6.50;57.18;98740.50;10591051;28;20048;-53
2021/03/16 00:41:24;;;;;;;33.85;14.20;;;;;;;6.44;57.16;98742.66;10590725;28;20111;-53
2021/03/16 00:46:26;;;;;;;34.20;14.63;;;;;;;6.30;57.61;98748.19;10577984;28;20040;-53
2021/03/16 00:51:28;;;;;;;37.47;16.43;;;;;;;6.16;57.40;98740.69;10548160;28;20142;-53
2021/03/16 00:56:30;;;;;;;35.25;14.85;;;;;;;5.96;57.75;98750.13;10551389;28;20040;-53
2021/03/16 01:01:33;;;;;;;34.90;16.77;;;;;;;5.81;58.12;98746.94;10551581;28;20043;-53
2021/03/16 01:06:34;;;;;;;31.20;14.93;;;;;;;5.78;57.97;98749.81;10548588;28;20113;-52
2021/03/16 01:11:36;;;;;;;41.15;19.25;;;;;;;5.70;58.31;98758.25;10549467;28;20044;-52
2021/03/16 01:16:38;;;;;;;43.08;18.02;;;;;;;5.57;58.62;98761.94;10544634;28;20055;-52
2021/03/16 01:21:40;;;;;;;47.25;18.05;;;;;;;5.37;59.55;98761.75;10545140;28;20056;-52
2021/03/16 01:26:42;;;;;;;44.00;17.70;;;;;;;5.27;59.94;98773.84;10547810;28;20476;-53
2021/03/16 01:31:44;;;;;;;47.30;17.23;;;;;;;5.18;59.81;98771.97;10545914;28;20048;-54
2021/03/16 01:36:46;;;;;;;47.88;17.17;;;;;;;5.12;60.20;98788.91;10545101;28;20048;-56
2021/03/16 01:41:47;;;;;;;47.90;20.75;;;;;;;5.11;60.23;98791.59;10546093;28;20048;-53
2021/03/16 01:46:50;;;;;;;52.83;19.60;;;;;;;5.18;60.11;98788.44;10546255;28;20048;-52
2021/03/16 01:51:52;;;;;;;50.45;22.00;;;;;;;5.32;60.27;98792.53;10546436;28;20052;-54
2021/03/16 01:56:54;;;;;;;50.90;22.33;;;;;;;5.34;59.71;98801.09;10545535;28;20524;-53
2021/03/16 02:02:15;;;;;;;68.95;23.58;;;;;;;5.25;59.83;98791.38;10545258;28;20051;-52
2021/03/16 02:07:42;;;;;;;62.10;21.40;;;;;;;5.10;60.49;98792.56;10545141;28;20540;-52
2021/03/16 02:13:06;;;;;;;61.63;20.42;;;;;;;5.12;60.28;98790.69;10546536;28;20040;-53
2021/03/16 02:18:33;;;;;;;58.87;19.53;;;;;;;5.10;60.53;98795.16;10547200;28;20050;-57
2021/03/16 02:24:29;;;;;;;57.05;22.58;;;;;;;5.11;60.36;98799.41;10544402;28;20064;-53
2021/03/16 02:29:53;;;;;;;57.57;20.50;;;;;;;5.06;60.31;98794.59;10548436;28;20524;-58
2021/03/16 02:35:18;;;;;;;76.82;24.10;;;;;;;5.12;60.08;98796.72;10544214;28;20117;-52
2021/03/16 02:40:40;;;;;;;69.47;19.38;;;;;;;5.17;60.41;98793.75;10544849;28;20040;-54
2021/03/16 02:46:03;;;;;;;62.45;22.58;;;;;;;5.10;60.28;98792.56;10545909;28;20079;-52
2021/03/16 02:51:24;;;;;;;57.22;22.50;;;;;;;5.30;60.35;98790.06;10543354;28;20063;-55
2021/03/16 02:56:47;;;;;;;51.55;20.88;;;;;;;5.50;59.57;98795.50;10543509;28;20067;-52
2021/03/16 03:02:11;;;;;;;53.97;22.75;;;;;;;5.66;59.68;98800.31;10516605;28;20177;-54
2021/03/16 03:07:32;;;;;;;57.30;22.23;;;;;;;5.89;59.34;98796.72;10504228;28;20554;-52
2021/03/16 03:12:52;;;;;;;62.85;24.48;;;;;;;6.03;59.12;98797.41;10500252;28;20045;-52
2021/03/16 03:18:13;;;;;;;54.95;22.88;;;;;;;6.13;58.38;98798.34;10500850;28;20044;-52
2021/03/16 03:23:38;;;;;;;59.30;24.27;;;;;;;6.24;58.14;98800.88;10498056;28;20051;-54
2021/03/16 03:29:00;;;;;;;;;;;;;;;6.38;58.20;98810.22;10500188;28;20051;-52
2021/03/16 03:34:23;;;;;;;59.58;23.67;;;;;;;6.41;57.75;98813.41;10498832;28;19928;-51
2021/03/16 03:39:44;;;;;;;62.92;26.25;;;;;;;6.50;57.41;98811.00;10497958;28;20139;-51
2021/03/16 03:45:07;;;;;;;66.70;24.92;;;;;;;6.58;57.56;98800.72;10498526;28;20048;-56
2021/03/16 03:50:28;;;;;;;58.03;23.73;;;;;;;6.65;56.96;98807.09;10497825;28;20044;-58
2021/03/16 03:55:48;;;;;;;56.55;23.23;;;;;;;6.64;57.32;98818.50;10501160;28;20058;-53
2021/03/16 04:01:09;;;;;;;56.83;24.48;;;;;;;6.66;57.49;98816.59;10498792;28;20041;-52
2021/03/16 04:06:30;;;;;;;60.67;22.95;;;;;;;6.69;57.36;98818.94;10499608;28;20052;-52
2021/03/16 04:11:52;;;;;;;59.83;23.38;;;;;;;6.74;56.76;98824.59;10499518;28;20080;-58
2021/03/16 04:17:12;;;;;;;52.45;23.08;;;;;;;6.76;56.73;98832.31;10497503;28;20051;-52
2021/03/16 04:22:33;;;;;;;41.80;19.77;;;;;;;6.71;57.03;98831.88;10495098;28;20179;-52
2021/03/16 04:27:53;;;;;;;44.47;19.17;;;;;;;6.75;56.92;98852.41;10496626;28;20132;-52
2021/03/16 04:33:14;;;;;;;40.60;17.77;;;;;;;6.68;57.09;98857.31;10495830;28;20056;-52
2021/03/16 04:38:35;;;;;;;40.33;18.10;;;;;;;6.62;56.78;98856.97;10496958;28;20140;-53
2021/03/16 04:43:55;;;;;;;47.80;16.95;;;;;;;6.37;57.70;98869.44;10498158;28;20080;-54
2021/03/16 04:49:16;;;;;;;37.45;16.42;;;;;;;6.29;57.34;98877.03;10500272;28;20056;-52
2021/03/16 04:54:37;;;;;;;38.15;17.38;;;;;;;6.21;57.82;98880.25;10495410;28;20141;-53
2021/03/16 04:59:58;;;;;;;40.15;16.48;;;;;;;6.36;57.50;98872.97;10499337;28;20041;-52
2021/03/16 05:05:18;;;;;;;42.00;17.90;;;;;;;6.43;57.45;98884.59;10497134;28;20554;-51
2021/03/16 05:10:39;;;;;;;44.28;18.63;;;;;;;6.38;57.08;98886.75;10501164;28;20124;-53
2021/03/16 05:16:01;;;;;;;34.90;16.40;;;;;;;6.42;57.67;98888.16;10503311;28;20149;-52
2021/03/16 05:21:21;;;;;;;39.65;17.23;;;;;;;6.34;57.32;98887.09;10511314;28;20478;-53
2021/03/16 05:26:42;;;;;;;31.23;14.05;;;;;;;6.38;57.38;98897.19;10506930;28;20063;-52
2021/03/16 05:32:03;;;;;;;33.97;14.90;;;;;;;6.57;57.37;98895.69;10503149;28;20080;-53
2021/03/16 05:37:23;;;;;;;36.15;15.85;;;;;;;6.94;56.37;98897.91;10503240;28;20082;-53
2021/03/16 05:42:45;;;;;;;41.08;18.17;;;;;;;7.05;56.25;98895.19;10507511;28;20063;-59
2021/03/16 05:48:09;;;;;;;33.38;14.90;;;;;;;7.18;55.43;98895.03;10503170;28;20045;-58
2021/03/16 05:53:29;;;;;;;30.00;13.30;;;;;;;7.14;55.60;98897.03;10501939;28;20049;-53
2021/03/16 05:58:51;;;;;;;31.00;13.25;;;;;;;7.04;55.88;98891.75;10503638;28;20131;-53
2021/03/16 06:04:11;;;;;;;36.17;15.60;;;;;;;7.10;56.20;98900.88;10500969;28;20067;-52
2021/03/16 06:09:32;;;;;;;33.78;15.20;;;;;;;7.25;55.67;98904.81;10502998;28;20499;-52
2021/03/16 06:14:53;;;;;;;32.53;16.45;;;;;;;7.37;55.39;98906.41;10503579;28;20044;-52
2021/03/16 06:20:25;;;;;;;33.63;17.27;;;;;;;7.61;54.92;98907.91;10501286;28;20088;-53
2021/03/16 06:25:45;;;;;;;37.88;17.30;;;;;;;7.83;54.93;98905.09;10501111;28;20512;-54
2021/03/16 06:31:07;;;;;;;32.70;14.25;;;;;;;7.98;54.64;98905.56;10503232;28;20048;-52
2021/03/16 06:36:28;;;;;;;28.58;14.30;;;;;;;8.12;54.31;98900.88;10504986;28;20145;-52
2021/03/16 06:41:48;;;;;;;23.80;13.13;;;;;;;8.22;54.73;98896.47;10500609;28;20055;-53
2021/03/16 06:47:14;;;;;;;28.77;13.32;;;;;;;8.33;53.95;98903.41;10501059;28;20129;-53
2021/03/16 06:52:34;;;;;;;32.20;16.27;;;;;;;8.41;54.06;98899.19;10502613;28;20471;-53
2021/03/16 06:58:04;;;;;;;35.45;15.82;;;;;;;8.36;54.22;98903.97;10503072;28;20393;-53
2021/03/16 07:03:25;;;;;;;42.00;17.23;;;;;;;8.29;53.48;98900.25;10499677;28;20048;-61
2021/03/16 07:08:47;;;;;;;41.53;17.40;;;;;;;8.29;54.09;98898.44;10499497;28;20049;-53
2021/03/16 07:14:08;;;;;;;28.38;11.95;;;;;;;8.26;53.92;98906.56;10500118;28;20518;-54
2021/03/16 07:19:30;;;;;;;32.53;12.93;;;;;;;8.17;53.70;98904.75;10499948;28;20131;-53
2021/03/16 07:24:51;;;;;;;22.35;11.10;;;;;;;8.01;53.87;98910.50;10499154;28;20056;-53
2021/03/16 07:30:13;;;;;;;18.08;8.88;;;;;;;7.91;54.07;98908.81;10499119;28;20386;-53
2021/03/16 07:35:35;;;;;;;26.83;11.27;;;;;;;7.46;54.63;98898.75;10497401;28;20127;-52
2021/03/16 07:40:56;;;;;;;28.42;10.80;;;;;;;7.52;55.49;98900.84;10498594;28;20473;-54
2021/03/16 07:46:18;;;;;;;22.75;9.30;;;;;;;7.67;54.66;98896.09;10498894;28;20048;-53
2021/03/16 07:51:41;;;;;;;32.88;14.63;;;;;;;7.66;54.77;98892.63;10498522;28;20139;-53
2021/03/16 07:57:02;;;;;;;29.27;13.25;;;;;;;7.89;54.56;98897.69;10500402;28;20075;-53
2021/03/16 08:02:27;;;;;;;28.00;14.70;;;;;;;8.09;54.04;98901.97;10500426;28;20440;-57
2021/03/16 08:07:48;;;;;;;30.17;15.32;;;;;;;8.17;53.55;98902.13;10497705;28;20060;-52
2021/03/16 08:13:14;;;;;;;34.28;16.48;;;;;;;8.22;53.54;98904.34;10496637;28;20086;-55
2021/03/16 08:18:34;;;;;;;37.38;19.10;;;;;;;7.98;54.16;98904.72;10496962;28;20072;-53
2021/03/16 08:24:03;;;;;;;36.10;16.73;;;;;;;7.96;54.73;98906.63;10502911;28;20147;-54
2021/03/16 08:29:27;;;;;;;34.67;15.43;;;;;;;8.06;54.44;98907.47;10508040;28;20044;-53
2021/03/16 08:34:48;;;;;;;29.05;14.82;;;;;;;8.02;53.63;98906.94;10502903;28;20049;-52
2021/03/16 08:40:20;;;;;;;31.52;14.02;;;;;;;8.17;53.80;98912.63;10497132;28;20100;-52
2021/03/16 08:45:44;;;;;;;31.77;15.73;;;;;;;7.94;53.92;98908.53;10504503;28;20078;-53
2021/03/16 08:51:04;;;;;;;36.17;16.33;;;;;;;7.90;54.16;98909.78;10505695;28;20067;-52
2021/03/16 08:56:26;;;;;;;34.50;17.92;;;;;;;7.91;54.00;98921.91;10506206;28;20052;-54
2021/03/16 09:01:48;;;;;;;29.50;15.73;;;;;;;7.90;53.42;98917.63;10506981;28;20059;-53
2021/03/16 09:07:08;;;;;;;30.40;13.80;;;;;;;7.68;53.40;98914.25;10506326;28;20056;-52
2021/03/16 09:12:31;;;;;;;19.40;10.10;;;;;;;7.69;53.35;98915.06;10506382;28;20527;-54
2021/03/16 09:17:53;;;;;;;19.35;9.75;;;;;;;7.59;53.50;98918.47;10503580;28;20044;-52
2021/03/16 09:23:14;;;;;;;22.23;10.30;;;;;;;7.32;54.22;98919.03;10505712;28;20060;-53
2021/03/16 09:28:36;;;;;;;22.88;9.48;;;;;;;7.23;54.35;98917.19;10503161;28;20375;-53
2021/03/16 09:33:56;;;;;;;24.95;9.52;;;;;;;7.17;53.67;98925.53;10503170;28;20056;-55
2021/03/16 09:39:16;;;;;;;18.35;9.98;;;;;;;7.14;54.06;98923.19;10504023;28;20143;-52
2021/03/16 09:44:32;;;;;;;21.40;10.55;;;;;;;7.05;54.17;98924.81;10504582;28;20044;-53
2021/03/16 09:49:36;;;;;;;22.80;11.40;;;;;;;7.07;54.03;98930.72;10504665;28;20101;-52
2021/03/16 09:54:39;;;;;;;17.95;9.27;;;;;;;6.96;54.28;98928.19;10503169;28;20122;-54
2021/03/16 09:59:43;;;;;;;22.67;10.82;;;;;;;6.76;54.60;98921.97;10502368;28;20044;-54
2021/03/16 10:04:45;;;;;;;;;;;;;;;6.72;54.80;98936.22;10504119;28;20072;-53
2021/03/16 10:09:47;;;;;;;21.98;10.93;;;;;;;6.60;54.80;98932.00;10500797;28;19924;-53
2021/03/16 10:14:50;;;;;;;20.42;9.20;;;;;;;6.51;54.71;98935.34;10502072;28;20424;-53
2021/03/16 10:19:54;;;;;;;19.33;8.07;;;;;;;6.42;55.52;98935.13;10503177;28;20059;-56
2021/03/16 10:24:57;;;;;;;26.55;10.50;;;;;;;6.32;55.00;98942.06;10506972;28;20044;-55
2021/03/16 10:30:04;;;;;;;23.40;8.82;;;;;;;6.17;55.59;98930.22;10504694;28;20045;-53
2021/03/16 10:35:07;;;;;;;21.42;9.77;;;;;;;6.18;55.60;98932.69;10502520;28;20386;-58
2021/03/16 10:40:10;;;;;;;20.67;9.43;;;;;;;6.27;55.47;98920.69;10501770;28;20072;-53
2021/03/16 10:45:13;;;;;;;18.38;9.13;;;;;;;6.36;55.61;98913.91;10501117;28;20131;-53
2021/03/16 10:50:16;;;;;;;16.57;9.00;;;;;;;6.43;55.30;98910.72;10503199;28;20118;-53
2021/03/16 10:55:17;;;;;;;14.43;7.78;;;;;;;6.60;54.98;98913.72;10501898;28;20044;-51
2021/03/16 11:00:21;;;;;;;15.30;7.65;;;;;;;6.59;54.75;98919.88;10500951;28;20068;-53
2021/03/16 11:05:23;;;;;;;20.45;9.10;;;;;;;6.58;54.89;98919.06;10500508;28;20048;-53
2021/03/16 11:10:24;;;;;;;23.25;10.25;;;;;;;6.48;54.99;98923.38;10502386;28;20160;-52
2021/03/16 11:15:27;;;;;;;19.80;9.23;;;;;;;6.23;55.88;98927.13;10501758;28;20384;-52
2021/03/16 11:20:28;;;;;;;17.23;9.13;;;;;;;6.18;55.85;98916.22;10500017;28;20086;-52
2021/03/16 11:25:30;;;;;;;19.17;8.40;;;;;;;6.04;55.81;98919.09;10499755;28;20048;-52
2021/03/16 11:30:33;;;;;;;14.75;7.88;;;;;;;5.99;56.56;98917.66;10500433;28;20102;-52
2021/03/16 11:35:34;;;;;;;19.77;8.80;;;;;;;5.90;56.68;98913.16;10499657;28;20504;-53
2021/03/16 11:40:55;;;;;;;18.20;9.38;;;;;;;5.92;56.69;98907.81;10498837;28;20048;-53
2021/03/16 11:46:16;;;;;;;26.80;10.68;;;;;;;6.02;56.32;98916.59;10497775;28;20060;-55
2021/03/16 11:51:36;;;;;;;20.70;9.75;;;;;;;6.02;56.42;98919.22;10501264;28;20570;-53
2021/03/16 11:56:56;;;;;;;18.33;8.93;;;;;;;5.93;56.21;98928.59;10498470;28;20393;-54
2021/03/16 12:02:18;;;;;;;13.55;6.15;;;;;;;6.15;56.56;98924.28;10499564;28;20052;-52
2021/03/16 12:07:38;;;;;;;16.20;7.47;;;;;;;6.27;56.48;98917.25;10497914;28;20131;-53
2021/03/16 12:12:58;;;;;;;15.63;8.18;;;;;;;6.37;55.84;98915.56;10498677;28;20489;-54
2021/03/16 12:18:19;;;;;;;18.05;8.93;;;;;;;6.31;55.94;98919.53;10501809;28;20059;-53
2021/03/16 12:23:39;;;;;;;15.45;7.13;;;;;;;6.55;55.67;98913.25;10507175;28;20101;-53
2021/03/16 12:29:00;;;;;;;18.83;9.85;;;;;;;6.44;55.73;98917.56;10507173;28;20044;-53
2021/03/16 12:34:21;;;;;;;20.00;9.65;;;;;;;6.39;55.88;98917.09;10505752;28;20059;-52
2021/03/16 12:39:41;;;;;;;19.65;9.93;;;;;;;6.33;56.53;98909.78;10503997;28;20139;-53
2021/03/16 12:45:04;;;;;;;20.33;11.02;;;;;;;6.25;56.02;98911.34;10504864;28;20052;-52
2021/03/16 12:50:25;;;;;;;18.17;8.65;;;;;;;6.21;56.76;98918.56;10506846;28;20051;-54
2021/03/16 12:55:45;;;;;;;22.65;11.65;;;;;;;6.16;56.84;98915.53;10505346;28;20146;-52
2021/03/16 13:01:05;;;;;;;22.88;11.43;;;;;;;5.96;56.79;98912.69;10508047;28;20044;-53
2021/03/16 13:06:27;;;;;;;24.10;11.95;;;;;;;5.98;56.77;98905.59;10507645;28;20451;-65
2021/03/16 13:11:49;;;;;;;28.30;11.48;;;;;;;5.96;56.64;98910.09;10510418;28;20147;-57
2021/03/16 13:17:09;;;;;;;22.75;10.32;;;;;;;6.02;56.70;98921.00;10503807;28;20036;-52
2021/03/16 13:22:30;;;;;;;27.23;10.48;;;;;;;5.88;56.91;98915.06;10503170;28;20511;-52
2021/03/16 13:27:50;;;;;;;20.98;9.40;;;;;;;5.87;56.88;98918.59;10504805;28;20072;-52
2021/03/16 13:33:11;;;;;;;25.42;10.85;;;;;;;5.80;57.09;98904.38;10502242;28;20063;-52
2021/03/16 13:38:32;;;;;;;23.13;11.07;;;;;;;5.79;57.21;98905.34;10503103;28;20500;-52
2021/03/16 13:43:52;;;;;;;25.02;9.98;;;;;;;5.65;57.87;98908.19;10503400;28;20059;-52
2021/03/16 13:49:12;;;;;;;24.73;11.07;;;;;;;5.54;57.61;98907.25;10504781;28;20053;-52
2021/03/16 13:54:34;;;;;;;26.52;11.90;;;;;;;5.49;58.21;98911.97;10504514;28;20118;-52
2021/03/16 13:59:54;;;;;;;25.73;9.98;;;;;;;5.46;58.21;98898.34;10502301;28;20048;-52
2021/03/16 14:05:14;;;;;;;23.33;10.07;;;;;;;5.44;58.03;98898.47;10502188;28;20548;-53
2021/03/16 14:10:36;;;;;;;22.38;8.25;;;;;;;5.50;57.71;98905.81;10500378;28;20169;-51
2021/03/16 14:15:56;;;;;;;28.27;10.77;;;;;;;5.54;57.66;98902.03;10500186;28;20056;-52
2021/03/16 14:21:16;;;;;;;19.73;9.35;;;;;;;5.59;57.57;98908.66;10500066;28;20109;-53
2021/03/16 14:26:38;;;;;;;24.95;11.25;;;;;;;5.56;57.59;98898.47;10500423;28;20044;-57
2021/03/16 14:31:58;;;;;;;22.75;10.85;;;;;;;5.60;57.63;98894.66;10499976;28;20055;-52
2021/03/16 14:37:18;;;;;;;22.38;11.10;;;;;;;5.57;58.32;98900.94;10501285;28;20546;-54
2021/03/16 14:42:40;;;;;;;21.27;9.63;;;;;;;5.65;57.81;98900.38;10499967;28;20393;-54
2021/03/16 14:48:00;;;;;;;26.35;10.52;;;;;;;5.63;57.76;98890.03;10500935;28;20127;-59
2021/03/16 14:53:21;;;;;;;23.40;10.23;;;;;;;5.65;57.69;98897.75;10501476;28;20052;-52
2021/03/16 14:58:42;;;;;;;24.90;10.95;;;;;;;5.65;57.88;98902.97;10500248;28;20171;-54
2021/03/16 15:04:03;;;;;;;16.92;9.10;;;;;;;5.61;57.56;98893.75;10501486;28;20051;-54
2021/03/16 15:09:24;;;;;;;22.73;10.60;;;;;;;5.65;58.03;98900.38;10499083;28;20040;-52
2021/03/16 15:14:45;;;;;;;24.67;9.93;;;;;;;5.80;57.11;98901.78;10497167;28;20044;-52
2021/03/16 15:20:07;;;;;;;29.30;11.55;;;;;;;5.89;56.95;98902.84;10500289;28;20075;-54
2021/03/16 15:25:27;;;;;;;30.15;12.40;;;;;;;5.93;57.18;98907.72;10499454;28;20150;-53
2021/03/16 15:30:48;;;;;;;18.52;8.95;;;;;;;5.89;57.17;98916.72;10499943;28;20044;-53
2021/03/16 15:36:09;;;;;;;23.55;10.60;;;;;;;5.80;57.41;98912.22;10500271;28;20105;-53
2021/03/16 15:41:29;;;;;;;23.23;11.23;;;;;;;5.89;56.78;98911.50;10500596;28;20040;-52
2021/03/16 15:46:50;;;;;;;27.90;10.85;;;;;;;6.00;56.96;98918.50;10499848;28;20052;-52
2021/03/16 15:52:11;;;;;;;34.63;11.82;;;;;;;6.19;56.38;98915.28;10498290;28;20155;-53
2021/03/16 15:57:31;;;;;;;26.92;10.90;;;;;;;6.27;56.42;98923.31;10500450;28;20048;-52
2021/03/16 16:02:53;;;;;;;21.05;10.35;;;;;;;6.20;56.69;98922.97;10500537;28;20064;-53
2021/03/16 16:08:13;;;;;;;23.40;10.65;;;;;;;6.18;56.32;98919.66;10503832;28;20060;-59
2021/03/16 16:13:33;;;;;;;21.83;10.00;;;;;;;6.16;56.55;98924.19;10500075;28;20052;-52
2021/03/16 16:18:54;;;;;;;23.90;9.27;;;;;;;6.02;56.28;98936.66;10500847;28;20538;-53
2021/03/16 16:24:15;;;;;;;28.23;9.77;;;;;;;5.88;56.97;98935.94;10499525;28;20068;-51
2021/03/16 16:29:35;;;;;;;25.55;9.38;;;;;;;5.84;56.29;98944.91;10499988;28;20049;-52
2021/03/16 16:34:56;;;;;;;27.92;9.10;;;;;;;5.84;56.22;98937.09;10501077;28;20094;-61
2021/03/16 16:40:17;;;;;;;19.30;9.48;;;;;;;5.94;56.29;98937.25;10502198;28;20108;-63
2021/03/16 16:45:38;;;;;;;26.13;7.30;;;;;;;5.96;55.94;98938.78;10503941;28;20048;-53
2021/03/16 16:51:00;;;;;;;23.70;7.60;;;;;;;5.95;55.94;98934.53;10499420;28;20444;-56
2021/03/16 16:56:21;;;;;;;17.65;6.90;;;;;;;6.02;55.66;98939.25;10499450;28;20502;-52
2021/03/16 17:01:41;;;;;;;21.42;6.60;;;;;;;5.96;55.66;98949.22;10500501;28;20122;-53
2021/03/16 17:07:02;;;;;;;17.30;5.80;;;;;;;5.93;54.83;98941.63;10503586;28;20543;-51
2021/03/16 17:12:23;;;;;;;9.75;4.18;;;;;;;5.84;54.32;98934.50;10507346;28;20155;-55
2021/03/16 17:17:43;;;;;;;20.35;4.82;;;;;;;5.46;54.67;98940.88;10507724;28;20513;-51
2021/03/16 17:23:04;;;;;;;14.15;4.60;;;;;;;5.36;54.90;98934.72;10505666;28;20157;-51
2021/03/16 17:28:24;;;;;;;14.07;4.60;;;;;;;5.45;54.49;98931.41;10506052;28;20056;-52
2021/03/16 17:33:45;;;;;;;15.50;5.78;;;;;;;5.38;54.39;98942.41;10505385;28;20045;-52
2021/03/16 17:39:06;;;;;;;19.48;5.78;;;;;;;5.32;53.94;98943.69;10506078;28;20036;-55
2021/03/16 17:44:27;;;;;;;12.30;4.43;;;;;;;5.34;54.46;98941.81;10504770;28;20048;-61
2021/03/16 17:49:47;;;;;;;13.13;4.75;;;;;;;5.40;53.91;98936.16;10506251;28;20138;-59
2021/03/16 17:55:10;;;;;;;17.52;4.78;;;;;;;5.45;54.11;98931.41;10509184;28;20048;-53
2021/03/16 18:00:31;;;;;;;16.52;6.45;;;;;;;5.39;53.52;98942.31;10506764;28;20366;-53
2021/03/16 18:05:52;;;;;;;11.05;4.13;;;;;;;5.48;53.47;98944.22;10504597;28;20547;-52
2021/03/16 18:11:13;;;;;;;14.57;4.95;;;;;;;5.38;53.60;98945.84;10505394;28;20473;-59
2021/03/16 18:16:33;;;;;;;16.13;5.13;;;;;;;5.49;53.53;98940.66;10504734;28;20056;-52
2021/03/16 18:21:54;;;;;;;16.98;6.00;;;;;;;5.63;53.54;98936.16;10503641;28;20074;-53
2021/03/16 18:27:15;;;;;;;15.63;5.88;;;;;;;5.86;52.72;98932.59;10504346;28;20048;-54
2021/03/16 18:32:35;;;;;;;16.67;5.25;;;;;;;5.95;53.08;98931.91;10503626;28;20090;-52
2021/03/16 18:37:56;;;;;;;18.15;5.55;;;;;;;6.06;53.02;98935.44;10502235;28;20098;-53
2021/03/16 18:43:17;;;;;;;12.93;5.60;;;;;;;6.10;52.33;98932.50;10503790;28;20485;-53
2021/03/16 18:48:37;;;;;;;16.98;5.43;;;;;;;6.04;52.65;98926.94;10503326;28;20052;-52
2021/03/16 18:53:57;;;;;;;18.08;4.90;;;;;;;6.04;52.58;98919.94;10501706;28;20108;-51
2021/03/16 18:59:18;;;;;;;15.68;4.82;;;;;;;5.96;52.20;98917.91;10499972;28;20082;-52
2021/03/16 19:04:38;;;;;;;15.00;5.50;;;;;;;5.91;52.19;98913.97;10502678;28;20044;-58
2021/03/16 19:09:58;;;;;;;16.73;6.05;;;;;;;6.04;52.26;98908.66;10538295;28;20083;-52
2021/03/16 19:15:20;;;;;;;13.60;5.93;;;;;;;6.15;52.45;98917.28;10544270;28;20044;-55
2021/03/16 19:20:41;;;;;;;19.77;6.15;;;;;;;6.15;52.32;98921.69;10543813;28;20048;-52
2021/03/16 19:26:01;;;;;;;16.88;7.22;;;;;;;6.17;51.95;98915.38;10543166;28;20385;-51
2021/03/16 19:31:23;;;;;;;18.42;5.53;;;;;;;6.21;52.09;98900.31;10537985;28;20408;-52
2021/03/16 19:36:44;;;;;;;14.52;5.47;;;;;;;6.16;52.18;98902.47;10537203;28;20125;-52
2021/03/16 19:42:05;;;;;;;20.52;5.28;;;;;;;6.13;52.18;98897.50;10538520;28;20082;-53
2021/03/16 19:47:26;;;;;;;13.55;5.57;;;;;;;6.07;52.22;98898.00;10536465;28;20396;-57
2021/03/16 19:52:47;;;;;;;20.02;6.13;;;;;;;6.08;52.27;98895.25;10528750;28;20408;-52
2021/03/16 19:58:07;;;;;;;12.65;5.63;;;;;;;6.13;52.06;98890.50;10538686;28;20168;-53
2021/03/16 20:03:28;;;;;;;18.35;5.57;;;;;;;6.14;52.07;98893.94;10539704;28;20147;-53
2021/03/16 20:08:48;;;;;;;13.00;6.05;;;;;;;6.12;51.92;98885.38;10538313;28;20126;-53
2021/03/16 20:14:09;;;;;;;18.42;6.85;;;;;;;5.98;51.52;98883.88;10536766;28;20048;-53
2021/03/16 20:19:30;;;;;;;16.25;6.47;;;;;;;5.86;52.44;98888.25;10541051;28;20068;-52
2021/03/16 20:24:50;;;;;;;14.35;5.45;;;;;;;5.68;52.22;98874.88;10544155;28;20059;-60
2021/03/16 20:30:12;;;;;;;19.08;5.80;;;;;;;5.63;52.62;98878.78;10539137;28;20550;-55
2021/03/16 20:35:33;;;;;;;12.95;4.95;;;;;;;5.59;52.44;98872.16;10529648;28;20044;-52
2021/03/16 20:40:54;;;;;;;11.82;5.65;;;;;;;5.64;52.40;98875.25;10542969;28;20051;-54
2021/03/16 20:46:14;;;;;;;16.20;6.10;;;;;;;5.53;52.27;98868.25;10543526;28;20108;-52
2021/03/16 20:51:35;;;;;;;16.35;6.38;;;;;;;5.48;53.08;98866.00;10504887;28;20134;-52
2021/03/16 20:56:55;;;;;;;11.40;5.45;;;;;;;5.53;52.63;98861.25;10506344;28;20045;-53
2021/03/16 21:02:15;;;;;;;21.08;6.55;;;;;;;5.47;52.32;98859.13;10504641;28;20051;-52
2021/03/16 21:07:37;;;;;;;22.23;6.90;;;;;;;5.40;52.77;98850.13;10506636;28;20044;-53
2021/03/16 21:12:58;;;;;;;22.30;7.22;;;;;;;5.42;52.83;98848.25;10509614;28;20049;-59
2021/03/16 21:18:18;;;;;;;10.75;5.53;;;;;;;5.37;52.24;98860.78;10511676;28;20068;-54
2021/03/16 21:23:40;;;;;;;12.90;5.20;;;;;;;5.14;53.00;98872.13;10507136;28;20150;-52
2021/03/16 21:29:00;;;;;;;19.02;5.68;;;;;;;4.92;53.01;98873.75;10505763;28;20037;-51
2021/03/16 21:34:20;;;;;;;19.65;7.43;;;;;;;4.78;52.65;98868.78;10505238;28;20143;-52
2021/03/16 21:39:41;;;;;;;17.20;7.90;;;;;;;4.70;52.76;98864.13;10505196;28;20091;-52
2021/03/16 21:45:03;;;;;;;16.85;7.57;;;;;;;4.71;53.02;98864.94;10505383;28;20060;-52
2021/03/16 21:50:24;;;;;;;18.08;6.75;;;;;;;4.65;52.99;98862.78;10504902;28;20377;-52
2021/03/16 21:55:45;;;;;;;13.02;7.03;;;;;;;4.50;53.05;98857.81;10505214;28;20105;-52
2021/03/16 22:01:05;;;;;;;16.10;7.30;;;;;;;4.51;53.22;98858.63;10504149;28;20060;-52
2021/03/16 22:06:26;;;;;;;21.55;7.93;;;;;;;4.47;52.80;98862.41;10504265;28;20080;-52
2021/03/16 22:11:47;;;;;;;18.00;6.38;;;;;;;4.49;53.13;98870.91;10504173;28;20063;-52
2021/03/16 22:17:07;;;;;;;18.25;7.43;;;;;;;4.40;53.18;98862.00;10503133;28;20056;-53
2021/03/16 22:22:27;;;;;;;13.25;6.28;;;;;;;4.32;52.79;98854.75;10503407;28;20147;-52
2021/03/16 22:27:48;;;;;;;15.73;6.90;;;;;;;4.29;53.03;98869.78;10503814;28;20127;-63
2021/03/16 22:33:09;;;;;;;16.05;6.55;;;;;;;4.19;53.49;98860.97;10507402;28;20139;-52
2021/03/16 22:38:29;;;;;;;12.55;6.15;;;;;;;4.24;53.37;98851.88;10504065;28;20486;-53
2021/03/16 22:43:50;;;;;;;14.82;5.72;;;;;;;4.29;52.68;98849.78;10503916;28;20060;-54
2021/03/16 22:49:10;;;;;;;17.73;6.82;;;;;;;4.32;53.16;98841.75;10507999;28;20481;-59
2021/03/16 22:54:30;;;;;;;22.60;10.85;;;;;;;4.43;53.08;98846.16;10500648;28;20106;-52
2021/03/16 22:59:52;;;;;;;23.15;9.43;;;;;;;4.57;53.01;98840.78;10501537;28;20182;-52
2021/03/16 23:05:12;;;;;;;16.52;10.15;;;;;;;4.67;52.97;98829.69;10498318;28;20467;-53
2021/03/16 23:10:33;;;;;;;14.80;8.70;;;;;;;4.81;52.53;98834.69;10497838;28;20097;-52
2021/03/16 23:15:54;;;;;;;31.90;11.20;;;;;;;4.82;52.11;98838.94;10498639;28;20052;-52
2021/03/16 23:21:14;;;;;;;15.70;7.53;;;;;;;4.87;51.86;98839.44;10498926;28;20060;-53
2021/03/16 23:26:35;;;;;;;17.33;8.05;;;;;;;4.72;52.47;98830.19;10501862;28;20056;-57
2021/03/16 23:31:56;;;;;;;15.90;6.35;;;;;;;4.64;52.43;98829.91;10501807;28;20048;-52
2021/03/16 23:37:16;;;;;;;19.58;6.75;;;;;;;4.61;52.54;98829.19;10517611;28;20100;-53
2021/03/16 23:42:36;;;;;;;17.95;6.60;;;;;;;4.64;52.52;98822.91;10586838;28;20460;-60
2021/03/16 23:47:58;;;;;;;18.48;6.57;;;;;;;4.63;52.01;98815.25;10584436;28;20124;-53
2021/03/16 23:53:20;;;;;;;17.48;6.47;;;;;;;4.66;52.32;98815.84;10584614;28;20061;-52
2021/03/16 23:58:41;;;;;;;15.18;6.20;;;;;;;4.54;51.73;98817.56;10584102;28;20143;-52
